sensor_id;sensor_type;location;lat;lon;timestamp;P1;durP1;ratioP1;P2;durP2;ratioP2
14734;SDS011;7458;49.002;8.472;2023-05-10T00:00:41;1.95;;;1.67;;
14734;SDS011;7458;49.002;8.472;2023-05-10T00:03:08;1.20;;;1.10;;
14734;SDS011;7458;49.002;8.472;2023-05-10T00:05:33;2.42;;;1.17;;
14734;SDS011;7458;49.002;8.472;2023-05-10T00:07:59;8.55;;;1.80;;
14734;SDS011;7458;49.002;8.472;2023-05-10T00:10:26;6.38;;;1.95;;
14734;SDS011;7458;49.002;8.472;2023-05-10T00:12:51;3.30;;;1.75;;
14734;SDS011;7458;49.002;8.472;2023-05-10T00:15:17;2.33;;;1.67;;
14734;SDS011;7458;49.002;8.472;2023-05-10T00:17:43;1.85;;;1.23;;
14734;SDS011;7458;49.002;8.472;2023-05-10T00:20:09;3.33;;;1.65;;
14734;SDS011;7458;49.002;8.472;2023-05-10T00:22:35;4.57;;;1.63;;
14734;SDS011;7458;49.002;8.472;2023-05-10T00:25:01;2.08;;;1.58;;
14734;SDS011;7458;49.002;8.472;2023-05-10T00:27:27;3.53;;;1.60;;
14734;SDS011;7458;49.002;8.472;2023-05-10T00:29:53;3.60;;;1.77;;
14734;SDS011;7458;49.002;8.472;2023-05-10T00:32:19;2.15;;;1.63;;
14734;SDS011;7458;49.002;8.472;2023-05-10T00:34:45;4.53;;;2.17;;
14734;SDS011;7458;49.002;8.472;2023-05-10T00:37:11;2.92;;;1.65;;
14734;SDS011;7458;49.002;8.472;2023-05-10T00:39:37;2.67;;;2.17;;
14734;SDS011;7458;49.002;8.472;2023-05-10T00:42:02;2.83;;;1.67;;
14734;SDS011;7458;49.002;8.472;2023-05-10T00:44:29;2.40;;;1.65;;
14734;SDS011;7458;49.002;8.472;2023-05-10T00:46:56;3.78;;;1.90;;
14734;SDS011;7458;49.002;8.472;2023-05-10T00:49:24;4.05;;;2.78;;
14734;SDS011;7458;49.002;8.472;2023-05-10T00:51:50;2.22;;;1.85;;
14734;SDS011;7458;49.002;8.472;2023-05-10T00:54:16;6.30;;;2.22;;
14734;SDS011;7458;49.002;8.472;2023-05-10T00:56:42;2.28;;;1.58;;
14734;SDS011;7458;49.002;8.472;2023-05-10T00:59:13;9.05;;;2.28;;
14734;SDS011;7458;49.002;8.472;2023-05-10T01:01:42;3.47;;;2.17;;
14734;SDS011;7458;49.002;8.472;2023-05-10T01:04:09;2.80;;;2.00;;
14734;SDS011;7458;49.002;8.472;2023-05-10T01:06:38;5.93;;;3.40;;
14734;SDS011;7458;49.002;8.472;2023-05-10T01:09:05;2.92;;;2.05;;
14734;SDS011;7458;49.002;8.472;2023-05-10T01:11:32;5.22;;;1.92;;
14734;SDS011;7458;49.002;8.472;2023-05-10T01:14:00;3.90;;;2.35;;
14734;SDS011;7458;49.002;8.472;2023-05-10T01:16:27;3.10;;;2.78;;
14734;SDS011;7458;49.002;8.472;2023-05-10T01:19:02;3.70;;;2.83;;
14734;SDS011;7458;49.002;8.472;2023-05-10T01:21:38;3.45;;;2.45;;
14734;SDS011;7458;49.002;8.472;2023-05-10T01:24:30;3.28;;;2.72;;
14734;SDS011;7458;49.002;8.472;2023-05-10T01:27:47;3.45;;;2.70;;
14734;SDS011;7458;49.002;8.472;2023-05-10T01:33:52;3.13;;;2.33;;
14734;SDS011;7458;49.002;8.472;2023-05-10T01:36:51;6.90;;;3.25;;
14734;SDS011;7458;49.002;8.472;2023-05-10T01:42:47;5.65;;;3.22;;
14734;SDS011;7458;49.002;8.472;2023-05-10T01:45:33;4.35;;;3.00;;
14734;SDS011;7458;49.002;8.472;2023-05-10T01:48:12;4.57;;;3.35;;
14734;SDS011;7458;49.002;8.472;2023-05-10T01:50:41;3.65;;;2.90;;
14734;SDS011;7458;49.002;8.472;2023-05-10T01:53:11;3.92;;;3.10;;
14734;SDS011;7458;49.002;8.472;2023-05-10T01:55:49;3.97;;;3.58;;
14734;SDS011;7458;49.002;8.472;2023-05-10T01:58:20;4.57;;;2.72;;
14734;SDS011;7458;49.002;8.472;2023-05-10T02:00:53;4.97;;;4.10;;
14734;SDS011;7458;49.002;8.472;2023-05-10T02:03:22;4.35;;;3.47;;
14734;SDS011;7458;49.002;8.472;2023-05-10T02:05:51;4.78;;;3.40;;
14734;SDS011;7458;49.002;8.472;2023-05-10T02:08:19;3.42;;;3.13;;
14734;SDS011;7458;49.002;8.472;2023-05-10T02:10:47;3.80;;;3.33;;
14734;SDS011;7458;49.002;8.472;2023-05-10T02:13:18;4.95;;;4.10;;
14734;SDS011;7458;49.002;8.472;2023-05-10T02:15:48;5.53;;;3.65;;
14734;SDS011;7458;49.002;8.472;2023-05-10T02:18:15;6.32;;;4.65;;
14734;SDS011;7458;49.002;8.472;2023-05-10T02:20:44;4.88;;;3.90;;
14734;SDS011;7458;49.002;8.472;2023-05-10T02:23:12;4.90;;;4.00;;
14734;SDS011;7458;49.002;8.472;2023-05-10T02:25:42;5.95;;;4.38;;
14734;SDS011;7458;49.002;8.472;2023-05-10T02:28:09;7.97;;;3.72;;
14734;SDS011;7458;49.002;8.472;2023-05-10T02:30:38;6.00;;;4.38;;
14734;SDS011;7458;49.002;8.472;2023-05-10T02:33:05;5.53;;;4.85;;
14734;SDS011;7458;49.002;8.472;2023-05-10T02:35:32;7.50;;;5.18;;
14734;SDS011;7458;49.002;8.472;2023-05-10T02:38:00;8.77;;;4.57;;
14734;SDS011;7458;49.002;8.472;2023-05-10T02:40:27;4.28;;;3.17;;
14734;SDS011;7458;49.002;8.472;2023-05-10T02:42:55;5.05;;;3.85;;
14734;SDS011;7458;49.002;8.472;2023-05-10T02:45:24;5.65;;;4.70;;
14734;SDS011;7458;49.002;8.472;2023-05-10T02:47:55;6.85;;;4.28;;
14734;SDS011;7458;49.002;8.472;2023-05-10T02:50:21;5.60;;;4.43;;
14734;SDS011;7458;49.002;8.472;2023-05-10T02:52:56;5.05;;;3.95;;
14734;SDS011;7458;49.002;8.472;2023-05-10T02:55:31;5.28;;;4.47;;
14734;SDS011;7458;49.002;8.472;2023-05-10T02:58:02;6.35;;;4.28;;
14734;SDS011;7458;49.002;8.472;2023-05-10T03:00:30;5.05;;;4.28;;
14734;SDS011;7458;49.002;8.472;2023-05-10T03:02:56;6.18;;;5.57;;
14734;SDS011;7458;49.002;8.472;2023-05-10T03:05:23;6.22;;;4.97;;
14734;SDS011;7458;49.002;8.472;2023-05-10T03:07:49;6.95;;;5.25;;
14734;SDS011;7458;49.002;8.472;2023-05-10T03:10:16;9.60;;;5.22;;
14734;SDS011;7458;49.002;8.472;2023-05-10T03:18:18;7.28;;;4.88;;
14734;SDS011;7458;49.002;8.472;2023-05-10T03:21:02;4.57;;;4.13;;
14734;SDS011;7458;49.002;8.472;2023-05-10T03:23:34;5.47;;;4.82;;
14734;SDS011;7458;49.002;8.472;2023-05-10T03:26:24;7.70;;;4.53;;
14734;SDS011;7458;49.002;8.472;2023-05-10T03:28:52;5.55;;;4.63;;
14734;SDS011;7458;49.002;8.472;2023-05-10T03:31:19;6.03;;;4.63;;
14734;SDS011;7458;49.002;8.472;2023-05-10T03:33:46;6.38;;;4.00;;
14734;SDS011;7458;49.002;8.472;2023-05-10T03:36:13;6.30;;;4.63;;
14734;SDS011;7458;49.002;8.472;2023-05-10T03:38:39;8.05;;;4.95;;
14734;SDS011;7458;49.002;8.472;2023-05-10T03:41:05;5.97;;;5.38;;
14734;SDS011;7458;49.002;8.472;2023-05-10T03:43:31;6.70;;;5.00;;
14734;SDS011;7458;49.002;8.472;2023-05-10T03:45:57;6.15;;;5.13;;
14734;SDS011;7458;49.002;8.472;2023-05-10T03:48:23;4.70;;;3.92;;
14734;SDS011;7458;49.002;8.472;2023-05-10T03:50:49;5.70;;;4.00;;
14734;SDS011;7458;49.002;8.472;2023-05-10T03:53:15;6.68;;;4.80;;
14734;SDS011;7458;49.002;8.472;2023-05-10T03:55:41;5.55;;;4.28;;
14734;SDS011;7458;49.002;8.472;2023-05-10T03:58:06;8.52;;;4.70;;
14734;SDS011;7458;49.002;8.472;2023-05-10T04:00:36;6.85;;;5.30;;
14734;SDS011;7458;49.002;8.472;2023-05-10T04:03:02;7.90;;;5.13;;
14734;SDS011;7458;49.002;8.472;2023-05-10T04:05:28;5.72;;;4.65;;
14734;SDS011;7458;49.002;8.472;2023-05-10T04:07:54;6.47;;;4.20;;
14734;SDS011;7458;49.002;8.472;2023-05-10T04:10:20;5.13;;;4.57;;
14734;SDS011;7458;49.002;8.472;2023-05-10T04:12:46;6.07;;;4.95;;
14734;SDS011;7458;49.002;8.472;2023-05-10T04:15:11;6.70;;;4.50;;
14734;SDS011;7458;49.002;8.472;2023-05-10T04:17:38;4.45;;;4.03;;
14734;SDS011;7458;49.002;8.472;2023-05-10T04:20:03;5.22;;;3.75;;
14734;SDS011;7458;49.002;8.472;2023-05-10T04:22:31;4.93;;;4.22;;
14734;SDS011;7458;49.002;8.472;2023-05-10T04:24:57;5.18;;;3.47;;
14734;SDS011;7458;49.002;8.472;2023-05-10T04:27:23;4.82;;;3.88;;
14734;SDS011;7458;49.002;8.472;2023-05-10T04:29:48;6.88;;;3.90;;
14734;SDS011;7458;49.002;8.472;2023-05-10T04:32:14;11.73;;;3.47;;
14734;SDS011;7458;49.002;8.472;2023-05-10T04:34:41;9.73;;;4.88;;
14734;SDS011;7458;49.002;8.472;2023-05-10T04:37:07;5.93;;;3.65;;
14734;SDS011;7458;49.002;8.472;2023-05-10T04:39:33;5.85;;;3.65;;
14734;SDS011;7458;49.002;8.472;2023-05-10T04:42:00;4.90;;;4.07;;
14734;SDS011;7458;49.002;8.472;2023-05-10T04:44:27;6.70;;;4.82;;
14734;SDS011;7458;49.002;8.472;2023-05-10T04:46:54;5.97;;;5.13;;
14734;SDS011;7458;49.002;8.472;2023-05-10T04:49:20;5.32;;;4.18;;
14734;SDS011;7458;49.002;8.472;2023-05-10T04:51:46;5.60;;;4.50;;
14734;SDS011;7458;49.002;8.472;2023-05-10T04:54:12;7.50;;;4.65;;
14734;SDS011;7458;49.002;8.472;2023-05-10T04:56:38;5.43;;;4.30;;
14734;SDS011;7458;49.002;8.472;2023-05-10T04:59:03;6.38;;;4.10;;
14734;SDS011;7458;49.002;8.472;2023-05-10T05:01:29;5.38;;;4.38;;
14734;SDS011;7458;49.002;8.472;2023-05-10T05:03:55;5.05;;;3.90;;
14734;SDS011;7458;49.002;8.472;2023-05-10T05:06:20;6.38;;;4.43;;
14734;SDS011;7458;49.002;8.472;2023-05-10T05:08:46;8.45;;;5.47;;
14734;SDS011;7458;49.002;8.472;2023-05-10T05:11:14;6.53;;;5.25;;
14734;SDS011;7458;49.002;8.472;2023-05-10T05:13:39;7.45;;;4.70;;
14734;SDS011;7458;49.002;8.472;2023-05-10T05:16:05;5.43;;;4.65;;
14734;SDS011;7458;49.002;8.472;2023-05-10T05:18:31;5.50;;;4.82;;
14734;SDS011;7458;49.002;8.472;2023-05-10T05:20:58;5.70;;;5.10;;
14734;SDS011;7458;49.002;8.472;2023-05-10T05:23:24;8.88;;;5.38;;
14734;SDS011;7458;49.002;8.472;2023-05-10T05:25:54;6.00;;;5.40;;
14734;SDS011;7458;49.002;8.472;2023-05-10T05:28:20;6.20;;;5.43;;
14734;SDS011;7458;49.002;8.472;2023-05-10T05:30:46;6.70;;;4.95;;
14734;SDS011;7458;49.002;8.472;2023-05-10T05:33:15;5.32;;;4.80;;
14734;SDS011;7458;49.002;8.472;2023-05-10T05:35:41;8.43;;;5.65;;
14734;SDS011;7458;49.002;8.472;2023-05-10T05:38:12;5.43;;;4.57;;
14734;SDS011;7458;49.002;8.472;2023-05-10T05:40:38;5.65;;;4.70;;
14734;SDS011;7458;49.002;8.472;2023-05-10T05:43:03;5.03;;;4.53;;
14734;SDS011;7458;49.002;8.472;2023-05-10T05:45:29;23.65;;;20.52;;
14734;SDS011;7458;49.002;8.472;2023-05-10T05:47:55;6.00;;;4.85;;
14734;SDS011;7458;49.002;8.472;2023-05-10T05:50:21;6.35;;;4.25;;
14734;SDS011;7458;49.002;8.472;2023-05-10T05:52:46;5.78;;;4.20;;
14734;SDS011;7458;49.002;8.472;2023-05-10T05:55:12;6.43;;;5.05;;
14734;SDS011;7458;49.002;8.472;2023-05-10T05:57:38;7.90;;;4.45;;
14734;SDS011;7458;49.002;8.472;2023-05-10T06:00:04;4.57;;;4.05;;
14734;SDS011;7458;49.002;8.472;2023-05-10T06:02:30;10.00;;;4.68;;
14734;SDS011;7458;49.002;8.472;2023-05-10T06:04:56;5.00;;;3.88;;
14734;SDS011;7458;49.002;8.472;2023-05-10T06:07:22;4.45;;;3.65;;
14734;SDS011;7458;49.002;8.472;2023-05-10T06:09:48;6.95;;;3.28;;
14734;SDS011;7458;49.002;8.472;2023-05-10T06:12:14;3.33;;;2.58;;
14734;SDS011;7458;49.002;8.472;2023-05-10T06:14:39;4.72;;;3.25;;
14734;SDS011;7458;49.002;8.472;2023-05-10T06:17:06;7.35;;;3.38;;
14734;SDS011;7458;49.002;8.472;2023-05-10T06:19:31;5.35;;;4.53;;
14734;SDS011;7458;49.002;8.472;2023-05-10T06:21:57;4.57;;;3.35;;
14734;SDS011;7458;49.002;8.472;2023-05-10T06:24:23;6.97;;;3.35;;
14734;SDS011;7458;49.002;8.472;2023-05-10T06:26:48;4.55;;;4.10;;
14734;SDS011;7458;49.002;8.472;2023-05-10T06:29:15;5.43;;;3.92;;
14734;SDS011;7458;49.002;8.472;2023-05-10T06:31:41;4.53;;;3.70;;
14734;SDS011;7458;49.002;8.472;2023-05-10T06:34:07;6.97;;;3.90;;
14734;SDS011;7458;49.002;8.472;2023-05-10T06:36:33;6.15;;;4.18;;
14734;SDS011;7458;49.002;8.472;2023-05-10T06:38:59;7.18;;;4.72;;
14734;SDS011;7458;49.002;8.472;2023-05-10T06:41:25;4.63;;;4.07;;
14734;SDS011;7458;49.002;8.472;2023-05-10T06:43:51;8.43;;;4.22;;
14734;SDS011;7458;49.002;8.472;2023-05-10T06:46:17;5.22;;;4.30;;
14734;SDS011;7458;49.002;8.472;2023-05-10T06:48:43;8.82;;;3.70;;
14734;SDS011;7458;49.002;8.472;2023-05-10T06:51:08;5.68;;;4.40;;
14734;SDS011;7458;49.002;8.472;2023-05-10T06:53:34;5.68;;;3.05;;
14734;SDS011;7458;49.002;8.472;2023-05-10T06:56:03;8.30;;;4.30;;
14734;SDS011;7458;49.002;8.472;2023-05-10T06:58:29;3.75;;;3.35;;
14734;SDS011;7458;49.002;8.472;2023-05-10T07:01:01;3.20;;;2.40;;
14734;SDS011;7458;49.002;8.472;2023-05-10T07:03:28;3.50;;;2.75;;
14734;SDS011;7458;49.002;8.472;2023-05-10T07:05:53;3.25;;;2.53;;
14734;SDS011;7458;49.002;8.472;2023-05-10T07:08:31;3.35;;;2.78;;
14734;SDS011;7458;49.002;8.472;2023-05-10T07:11:04;3.50;;;2.88;;
14734;SDS011;7458;49.002;8.472;2023-05-10T07:13:32;6.05;;;2.90;;
14734;SDS011;7458;49.002;8.472;2023-05-10T07:15:59;5.22;;;2.72;;
14734;SDS011;7458;49.002;8.472;2023-05-10T07:18:26;6.93;;;2.70;;
14734;SDS011;7458;49.002;8.472;2023-05-10T07:20:53;3.20;;;2.40;;
14734;SDS011;7458;49.002;8.472;2023-05-10T07:23:18;5.22;;;2.30;;
14734;SDS011;7458;49.002;8.472;2023-05-10T07:25:48;5.45;;;2.70;;
14734;SDS011;7458;49.002;8.472;2023-05-10T07:28:17;2.80;;;2.17;;
14734;SDS011;7458;49.002;8.472;2023-05-10T07:30:43;4.45;;;2.28;;
14734;SDS011;7458;49.002;8.472;2023-05-10T07:33:10;3.08;;;2.35;;
14734;SDS011;7458;49.002;8.472;2023-05-10T07:35:38;2.33;;;1.98;;
14734;SDS011;7458;49.002;8.472;2023-05-10T07:38:04;4.85;;;2.63;;
14734;SDS011;7458;49.002;8.472;2023-05-10T07:40:30;3.58;;;2.63;;
14734;SDS011;7458;49.002;8.472;2023-05-10T07:42:56;5.43;;;3.03;;
14734;SDS011;7458;49.002;8.472;2023-05-10T07:45:22;3.30;;;2.25;;
14734;SDS011;7458;49.002;8.472;2023-05-10T07:47:49;2.97;;;2.00;;
14734;SDS011;7458;49.002;8.472;2023-05-10T07:50:15;2.17;;;1.65;;
14734;SDS011;7458;49.002;8.472;2023-05-10T07:52:41;3.05;;;2.17;;
14734;SDS011;7458;49.002;8.472;2023-05-10T07:55:07;4.78;;;2.58;;
14734;SDS011;7458;49.002;8.472;2023-05-10T07:57:34;2.60;;;2.03;;
14734;SDS011;7458;49.002;8.472;2023-05-10T07:59:59;3.92;;;1.67;;
14734;SDS011;7458;49.002;8.472;2023-05-10T08:02:25;4.63;;;1.73;;
14734;SDS011;7458;49.002;8.472;2023-05-10T08:04:51;3.20;;;1.90;;
14734;SDS011;7458;49.002;8.472;2023-05-10T08:07:17;2.72;;;1.95;;
14734;SDS011;7458;49.002;8.472;2023-05-10T08:09:43;2.05;;;1.85;;
14734;SDS011;7458;49.002;8.472;2023-05-10T08:12:09;2.08;;;1.63;;
14734;SDS011;7458;49.002;8.472;2023-05-10T08:14:35;12.05;;;2.40;;
14734;SDS011;7458;49.002;8.472;2023-05-10T08:17:03;5.97;;;2.15;;
14734;SDS011;7458;49.002;8.472;2023-05-10T08:19:29;4.43;;;1.90;;
14734;SDS011;7458;49.002;8.472;2023-05-10T08:21:55;3.83;;;1.45;;
14734;SDS011;7458;49.002;8.472;2023-05-10T08:24:21;3.15;;;1.35;;
14734;SDS011;7458;49.002;8.472;2023-05-10T08:26:47;2.53;;;1.75;;
14734;SDS011;7458;49.002;8.472;2023-05-10T08:29:13;4.00;;;1.95;;
14734;SDS011;7458;49.002;8.472;2023-05-10T08:31:40;1.80;;;1.52;;
14734;SDS011;7458;49.002;8.472;2023-05-10T08:34:06;1.88;;;1.67;;
14734;SDS011;7458;49.002;8.472;2023-05-10T08:36:32;5.18;;;1.83;;
14734;SDS011;7458;49.002;8.472;2023-05-10T08:38:58;1.85;;;1.65;;
14734;SDS011;7458;49.002;8.472;2023-05-10T08:41:24;3.70;;;1.65;;
14734;SDS011;7458;49.002;8.472;2023-05-10T08:43:53;4.88;;;1.73;;
14734;SDS011;7458;49.002;8.472;2023-05-10T08:46:20;2.35;;;1.65;;
14734;SDS011;7458;49.002;8.472;2023-05-10T08:48:48;3.67;;;1.58;;
14734;SDS011;7458;49.002;8.472;2023-05-10T08:51:22;1.67;;;1.50;;
14734;SDS011;7458;49.002;8.472;2023-05-10T08:53:51;2.45;;;1.52;;
14734;SDS011;7458;49.002;8.472;2023-05-10T08:56:18;1.90;;;1.55;;
14734;SDS011;7458;49.002;8.472;2023-05-10T08:58:45;2.95;;;1.60;;
14734;SDS011;7458;49.002;8.472;2023-05-10T09:01:12;1.38;;;1.25;;
14734;SDS011;7458;49.002;8.472;2023-05-10T09:03:41;3.60;;;2.00;;
14734;SDS011;7458;49.002;8.472;2023-05-10T09:06:08;2.97;;;1.52;;
14734;SDS011;7458;49.002;8.472;2023-05-10T09:08:34;4.10;;;1.95;;
14734;SDS011;7458;49.002;8.472;2023-05-10T09:11:01;1.90;;;1.75;;
14734;SDS011;7458;49.002;8.472;2023-05-10T09:13:27;1.60;;;1.50;;
14734;SDS011;7458;49.002;8.472;2023-05-10T09:15:54;1.70;;;1.40;;
14734;SDS011;7458;49.002;8.472;2023-05-10T09:18:20;1.73;;;1.48;;
14734;SDS011;7458;49.002;8.472;2023-05-10T09:20:46;2.20;;;1.25;;
14734;SDS011;7458;49.002;8.472;2023-05-10T09:23:12;2.17;;;1.67;;
14734;SDS011;7458;49.002;8.472;2023-05-10T09:25:38;4.38;;;1.58;;
14734;SDS011;7458;49.002;8.472;2023-05-10T09:28:06;9.77;;;1.65;;
14734;SDS011;7458;49.002;8.472;2023-05-10T09:30:33;5.50;;;1.92;;
14734;SDS011;7458;49.002;8.472;2023-05-10T09:33:00;2.75;;;1.60;;
14734;SDS011;7458;49.002;8.472;2023-05-10T09:35:27;2.13;;;1.83;;
14734;SDS011;7458;49.002;8.472;2023-05-10T09:37:55;3.03;;;1.50;;
14734;SDS011;7458;49.002;8.472;2023-05-10T09:40:25;4.20;;;1.92;;
14734;SDS011;7458;49.002;8.472;2023-05-10T09:43:00;2.83;;;1.70;;
14734;SDS011;7458;49.002;8.472;2023-05-10T09:45:30;3.10;;;1.50;;
14734;SDS011;7458;49.002;8.472;2023-05-10T09:47:58;2.65;;;1.55;;
14734;SDS011;7458;49.002;8.472;2023-05-10T09:50:25;2.45;;;1.55;;
14734;SDS011;7458;49.002;8.472;2023-05-10T09:52:56;3.30;;;1.88;;
14734;SDS011;7458;49.002;8.472;2023-05-10T09:58:11;4.47;;;1.90;;
14734;SDS011;7458;49.002;8.472;2023-05-10T10:00:39;5.53;;;1.98;;
14734;SDS011;7458;49.002;8.472;2023-05-10T10:03:13;2.42;;;1.90;;
14734;SDS011;7458;49.002;8.472;2023-05-10T10:05:42;4.68;;;2.00;;
14734;SDS011;7458;49.002;8.472;2023-05-10T10:08:09;3.03;;;2.13;;
14734;SDS011;7458;49.002;8.472;2023-05-10T10:10:37;4.57;;;1.60;;
14734;SDS011;7458;49.002;8.472;2023-05-10T10:13:05;2.25;;;1.63;;
14734;SDS011;7458;49.002;8.472;2023-05-10T10:15:31;2.80;;;1.60;;
14734;SDS011;7458;49.002;8.472;2023-05-10T10:17:59;2.88;;;2.13;;
14734;SDS011;7458;49.002;8.472;2023-05-10T10:20:26;4.38;;;2.25;;
14734;SDS011;7458;49.002;8.472;2023-05-10T10:22:53;4.40;;;1.63;;
14734;SDS011;7458;49.002;8.472;2023-05-10T10:25:19;6.00;;;1.90;;
14734;SDS011;7458;49.002;8.472;2023-05-10T10:36:02;8.02;;;1.80;;
14734;SDS011;7458;49.002;8.472;2023-05-10T10:39:07;2.85;;;1.70;;
14734;SDS011;7458;49.002;8.472;2023-05-10T10:49:43;3.80;;;2.47;;
14734;SDS011;7458;49.002;8.472;2023-05-10T10:52:31;6.50;;;2.92;;
14734;SDS011;7458;49.002;8.472;2023-05-10T11:03:00;4.35;;;3.33;;
14734;SDS011;7458;49.002;8.472;2023-05-10T11:05:46;5.20;;;2.85;;
14734;SDS011;7458;49.002;8.472;2023-05-10T11:08:33;5.60;;;3.60;;
14734;SDS011;7458;49.002;8.472;2023-05-10T11:11:07;3.58;;;2.65;;
14734;SDS011;7458;49.002;8.472;2023-05-10T11:18:40;7.40;;;2.75;;
14734;SDS011;7458;49.002;8.472;2023-05-10T11:21:16;3.70;;;2.65;;
14734;SDS011;7458;49.002;8.472;2023-05-10T11:23:49;5.13;;;3.15;;
14734;SDS011;7458;49.002;8.472;2023-05-10T11:26:31;5.13;;;2.45;;
14734;SDS011;7458;49.002;8.472;2023-05-10T11:28:59;3.97;;;2.65;;
14734;SDS011;7458;49.002;8.472;2023-05-10T11:31:27;3.42;;;2.28;;
14734;SDS011;7458;49.002;8.472;2023-05-10T11:33:54;2.80;;;2.30;;
14734;SDS011;7458;49.002;8.472;2023-05-10T11:36:29;9.20;;;2.30;;
14734;SDS011;7458;49.002;8.472;2023-05-10T11:38:59;4.03;;;2.63;;
14734;SDS011;7458;49.002;8.472;2023-05-10T11:41:28;3.95;;;2.63;;
14734;SDS011;7458;49.002;8.472;2023-05-10T11:43:56;4.07;;;2.80;;
14734;SDS011;7458;49.002;8.472;2023-05-10T11:46:24;1120.95;;;987.25;;
14734;SDS011;7458;49.002;8.472;2023-05-10T11:48:56;1183.82;;;896.47;;
14734;SDS011;7458;49.002;8.472;2023-05-10T11:51:35;1172.65;;;915.33;;
14734;SDS011;7458;49.002;8.472;2023-05-10T11:54:02;1150.55;;;916.63;;
14734;SDS011;7458;49.002;8.472;2023-05-10T11:56:36;1153.88;;;900.30;;
14734;SDS011;7458;49.002;8.472;2023-05-10T11:59:05;1170.47;;;900.58;;
14734;SDS011;7458;49.002;8.472;2023-05-10T12:01:32;1148.03;;;913.38;;
14734;SDS011;7458;49.002;8.472;2023-05-10T12:03:58;1121.15;;;997.33;;
14734;SDS011;7458;49.002;8.472;2023-05-10T12:06:26;1104.78;;;932.33;;
14734;SDS011;7458;49.002;8.472;2023-05-10T12:08:55;1128.22;;;925.17;;
14734;SDS011;7458;49.002;8.472;2023-05-10T12:11:24;1126.15;;;999.22;;
14734;SDS011;7458;49.002;8.472;2023-05-10T12:13:52;1111.63;;;930.10;;
14734;SDS011;7458;49.002;8.472;2023-05-10T12:16:25;1116.43;;;995.28;;
14734;SDS011;7458;49.002;8.472;2023-05-10T12:18:55;1116.38;;;994.53;;
14734;SDS011;7458;49.002;8.472;2023-05-10T12:21:24;1198.03;;;999.90;;
14734;SDS011;7458;49.002;8.472;2023-05-10T12:23:54;1122.80;;;944.55;;
14734;SDS011;7458;49.002;8.472;2023-05-10T12:26:27;1096.35;;;963.72;;
14734;SDS011;7458;49.002;8.472;2023-05-10T12:28:54;1090.38;;;959.85;;
14734;SDS011;7458;49.002;8.472;2023-05-10T12:31:56;1070.45;;;945.03;;
14734;SDS011;7458;49.002;8.472;2023-05-10T12:37:01;1268.63;;;999.90;;
14734;SDS011;7458;49.002;8.472;2023-05-10T12:39:38;1445.28;;;999.90;;
14734;SDS011;7458;49.002;8.472;2023-05-10T12:42:09;1356.28;;;999.90;;
14734;SDS011;7458;49.002;8.472;2023-05-10T12:44:35;1190.15;;;981.88;;
14734;SDS011;7458;49.002;8.472;2023-05-10T12:47:01;1297.15;;;999.90;;
14734;SDS011;7458;49.002;8.472;2023-05-10T12:49:27;1164.93;;;894.97;;
14734;SDS011;7458;49.002;8.472;2023-05-10T12:51:53;1118.70;;;996.38;;
14734;SDS011;7458;49.002;8.472;2023-05-10T12:54:18;1111.05;;;992.10;;
14734;SDS011;7458;49.002;8.472;2023-05-10T12:56:44;1115.07;;;994.63;;
14734;SDS011;7458;49.002;8.472;2023-05-10T12:59:10;1116.75;;;996.40;;
14734;SDS011;7458;49.002;8.472;2023-05-10T13:01:36;1126.90;;;998.97;;
14734;SDS011;7458;49.002;8.472;2023-05-10T13:04:01;1082.97;;;959.53;;
14734;SDS011;7458;49.002;8.472;2023-05-10T13:06:27;1072.40;;;951.28;;
14734;SDS011;7458;49.002;8.472;2023-05-10T13:08:53;1125.45;;;998.97;;
14734;SDS011;7458;49.002;8.472;2023-05-10T13:11:18;1075.07;;;956.17;;
14734;SDS011;7458;49.002;8.472;2023-05-10T13:13:45;1082.03;;;962.20;;
14734;SDS011;7458;49.002;8.472;2023-05-10T13:16:11;1110.35;;;990.50;;
14734;SDS011;7458;49.002;8.472;2023-05-10T13:18:37;1100.47;;;978.03;;
14734;SDS011;7458;49.002;8.472;2023-05-10T13:21:03;1104.60;;;932.65;;
14734;SDS011;7458;49.002;8.472;2023-05-10T13:23:30;1088.15;;;967.30;;
14734;SDS011;7458;49.002;8.472;2023-05-10T13:25:56;1087.22;;;956.47;;
14734;SDS011;7458;49.002;8.472;2023-05-10T13:28:21;1088.10;;;966.22;;
14734;SDS011;7458;49.002;8.472;2023-05-10T13:30:47;1053.35;;;936.03;;
14734;SDS011;7458;49.002;8.472;2023-05-10T13:33:13;1075.13;;;957.90;;
14734;SDS011;7458;49.002;8.472;2023-05-10T13:35:38;1038.72;;;914.67;;
14734;SDS011;7458;49.002;8.472;2023-05-10T13:38:04;1050.40;;;933.42;;
14734;SDS011;7458;49.002;8.472;2023-05-10T13:40:33;1038.40;;;914.80;;
14734;SDS011;7458;49.002;8.472;2023-05-10T13:42:59;1030.20;;;897.60;;
14734;SDS011;7458;49.002;8.472;2023-05-10T13:45:25;1027.13;;;885.25;;
14734;SDS011;7458;49.002;8.472;2023-05-10T13:47:50;1065.28;;;918.30;;
14734;SDS011;7458;49.002;8.472;2023-05-10T13:50:17;1079.70;;;958.78;;
14734;SDS011;7458;49.002;8.472;2023-05-10T13:52:43;1081.22;;;961.60;;
14734;SDS011;7458;49.002;8.472;2023-05-10T13:55:09;1110.18;;;960.38;;
14734;SDS011;7458;49.002;8.472;2023-05-10T13:57:37;1154.88;;;885.85;;
14734;SDS011;7458;49.002;8.472;2023-05-10T14:00:03;1109.40;;;990.65;;
14734;SDS011;7458;49.002;8.472;2023-05-10T14:02:29;1012.95;;;846.13;;
14734;SDS011;7458;49.002;8.472;2023-05-10T14:04:55;1027.63;;;878.83;;
14734;SDS011;7458;49.002;8.472;2023-05-10T14:07:21;1020.50;;;855.08;;
14734;SDS011;7458;49.002;8.472;2023-05-10T14:09:47;1025.70;;;880.15;;
14734;SDS011;7458;49.002;8.472;2023-05-10T14:12:13;1010.60;;;812.22;;
14734;SDS011;7458;49.002;8.472;2023-05-10T14:14:39;977.80;;;746.78;;
14734;SDS011;7458;49.002;8.472;2023-05-10T14:17:05;976.67;;;757.25;;
14734;SDS011;7458;49.002;8.472;2023-05-10T14:19:31;1084.13;;;966.45;;
14734;SDS011;7458;49.002;8.472;2023-05-10T14:21:58;1041.53;;;915.13;;
14734;SDS011;7458;49.002;8.472;2023-05-10T14:24:25;1048.38;;;922.45;;
14734;SDS011;7458;49.002;8.472;2023-05-10T14:26:50;1049.15;;;921.20;;
14734;SDS011;7458;49.002;8.472;2023-05-10T14:29:18;1044.80;;;924.42;;
14734;SDS011;7458;49.002;8.472;2023-05-10T14:31:46;1037.72;;;906.88;;
14734;SDS011;7458;49.002;8.472;2023-05-10T14:34:11;1045.22;;;923.38;;
14734;SDS011;7458;49.002;8.472;2023-05-10T14:36:37;1061.57;;;944.55;;
14734;SDS011;7458;49.002;8.472;2023-05-10T14:39:03;1059.20;;;941.05;;
14734;SDS011;7458;49.002;8.472;2023-05-10T14:41:28;1090.15;;;971.80;;
14734;SDS011;7458;49.002;8.472;2023-05-10T14:43:55;1086.30;;;968.40;;
14734;SDS011;7458;49.002;8.472;2023-05-10T14:46:21;1100.07;;;981.38;;
14734;SDS011;7458;49.002;8.472;2023-05-10T14:48:46;1050.63;;;933.63;;
14734;SDS011;7458;49.002;8.472;2023-05-10T14:51:12;1073.28;;;956.08;;
14734;SDS011;7458;49.002;8.472;2023-05-10T14:53:38;1048.53;;;931.25;;
14734;SDS011;7458;49.002;8.472;2023-05-10T14:56:04;1085.32;;;967.38;;
14734;SDS011;7458;49.002;8.472;2023-05-10T14:58:30;1065.72;;;947.90;;
14734;SDS011;7458;49.002;8.472;2023-05-10T15:00:55;1095.63;;;977.47;;
14734;SDS011;7458;49.002;8.472;2023-05-10T15:03:22;1076.63;;;959.28;;
14734;SDS011;7458;49.002;8.472;2023-05-10T15:05:47;1039.15;;;915.97;;
14734;SDS011;7458;49.002;8.472;2023-05-10T15:08:13;1083.93;;;966.38;;
14734;SDS011;7458;49.002;8.472;2023-05-10T15:10:39;1042.20;;;918.30;;
14734;SDS011;7458;49.002;8.472;2023-05-10T15:13:05;1076.50;;;959.15;;
14734;SDS011;7458;49.002;8.472;2023-05-10T15:15:31;1075.05;;;957.78;;
14734;SDS011;7458;49.002;8.472;2023-05-10T15:17:56;1075.47;;;958.03;;
14734;SDS011;7458;49.002;8.472;2023-05-10T15:20:22;1026.20;;;884.95;;
14734;SDS011;7458;49.002;8.472;2023-05-10T15:22:48;1020.00;;;868.60;;
14734;SDS011;7458;49.002;8.472;2023-05-10T15:25:14;1006.95;;;831.08;;
14734;SDS011;7458;49.002;8.472;2023-05-10T15:27:40;998.67;;;803.35;;
14734;SDS011;7458;49.002;8.472;2023-05-10T15:30:08;1004.08;;;819.25;;
14734;SDS011;7458;49.002;8.472;2023-05-10T15:32:35;993.47;;;783.95;;
14734;SDS011;7458;49.002;8.472;2023-05-10T15:35:01;1043.60;;;918.65;;